Watson, OK (74963)

1:47 AM CST on February 01, 2015 (GMT -0600)
RAWS BROKEN BOW OK US | Change Station
CLOSE
Current Station
Personal Weather Station
Location: Broken Bow, OK
Elevation: 500 ft
Nearby Weather Stations

Elev 500 ft 34.05 °N, 94.74 °W | Updated 45 minutes ago

Rain
Rain
44 °F
Feels Like 44 °F
N
3
Wind Variable Wind from East
Gusts 6.0 mph

Today
High -- | Low -- °F
--% Chance of Precip.
Yesterday
High -- | Low -- °F
Precip. -- in
7:15 AM 5:48 PM
Waxing Gibbous, 94% visible
Pressure 29.89 in
Visibility 4.0 miles
Clouds Mostly Cloudy 2200 ft
Mostly Cloudy 4300 ft
Overcast 6000 ft
Windchill 44 °F
Dew Point 43 °F
Humidity 98%
Rainfall 0.11 in
Snow Depth Not available.
UV 0 out of 12
Pollen 3.60 out of 12
Air Quality Not available.
Flu Activity Not available.
METAR KDEQ 010653Z AUTO 09003KT 4SM RA BKN022 BKN043 OVC060 09/05 A2989 RMK AO2 RAB0558 SLP121 P0002 T00890050

More Conditions Fewer Conditions

Pressure 29.89 in
Visibility 4.0 miles
Clouds Mostly Cloudy 2200 ft
Mostly Cloudy 4300 ft
Overcast 6000 ft
Windchill 44 °F
Dew Point 43 °F
Humidity 98%
Rainfall 0.11 in
Snow Depth Not available.
UV 0 out of 12
Pollen 3.60 out of 12
Air Quality Not available.
Flu Activity Not available.
METAR KDEQ 010653Z AUTO 09003KT 4SM RA BKN022 BKN043 OVC060 09/05 A2989 RMK AO2 RAB0558 SLP121 P0002 T00890050

More Conditions Fewer Conditions

Nowcast | as of 1:31 am CST on February 1, 2015

Areas of light rain will continue to intermittently affect parts of the region during the overnight hours. Rainfall amounts will be light...generally less than a tenth of an inch through 4 am.

×

10-Day Weather Forecast

Almanac

Astronomy

Feb. 01, 2015 Rise Set
Actual Time
Civil Twilight
Nautical Twilight
Astronomical Twilight
Moon
Length of Visible Light
Length of Day
Tomorrow will be .
, % of the Moon is Illuminated

Today's Extremes

State Highs State Lows

Community

WunderPhotos

Upload Photos

1,792,327 photos uploaded!

WunderBlogs® & News

Nearby

Air Quality

  Air Quality AQ Index Pollutant
Not available.

Snow Depth

Station Depth Elevation

Earthquake Activity

City Distance Mag. Time & Date
Minimum magnitude displayed is 2.5.

Coastal Water Temperatures

Place Temperature

Nearby Weather Stations